North Stonington, Connecticut
Current Conditions -  °F | °C
As of 11:53 PM on Saturday 25 Oct 2014 (Local Time) from KWST Reporting Station
Broken Clouds Broken Clouds  
Wind Chill: 61°   Ceiling: 10000
Heat Index: 61°   Visibility: 10mi
Dew Point: 50°   Wind: 10mph
Humidity: 67%   Direction: 230°SW
Pressure: 29.54"   Gusts: 21mph
Location:  41.44°N, 71.88°W
Report Text: KWST 260353Z AUTO 23009G18KT 10SM FEW070 BKN100 16/10 A2954 RMK AO2 SLP002 T01610100
Loading
Personal Weather Stations






























Interactive Weather Map
Tropical Storm Tracking
New forecast layout! Learn more

10-Day Weather Forecast

Advertisements
Track Severe Weather on mobile